sensor_id;sensor_type;location;lat;lon;timestamp;pressure;altitude;pressure_sealevel;temperature;humidity
72066;BME280;59939;52.516;13.420;2022-11-15T00:02:10;100502.13;;;9.41;68.76
72066;BME280;59939;52.516;13.420;2022-11-15T00:05:36;100508.78;;;8.47;72.71
72066;BME280;59939;52.516;13.420;2022-11-15T00:08:59;100518.00;;;8.14;74.51
72066;BME280;59939;52.516;13.420;2022-11-15T00:12:22;100515.56;;;8.31;73.95
72066;BME280;59939;52.516;13.420;2022-11-15T00:15:47;100506.06;;;8.47;72.58
72066;BME280;59939;52.516;13.420;2022-11-15T00:19:13;100492.50;;;9.43;69.22
72066;BME280;59939;52.516;13.420;2022-11-15T00:22:36;100496.13;;;8.52;73.72
72066;BME280;59939;52.516;13.420;2022-11-15T00:26:00;100484.50;;;9.20;69.30
72066;BME280;59939;52.516;13.420;2022-11-15T00:29:25;100472.25;;;9.80;66.96
72066;BME280;59939;52.516;13.420;2022-11-15T00:32:48;100480.19;;;8.21;73.40
72066;BME280;59939;52.516;13.420;2022-11-15T00:36:11;100471.22;;;8.53;72.68
72066;BME280;59939;52.516;13.420;2022-11-15T00:39:34;100476.78;;;9.22;69.73
72066;BME280;59939;52.516;13.420;2022-11-15T00:42:57;100471.78;;;7.99;75.15
72066;BME280;59939;52.516;13.420;2022-11-15T00:46:20;100472.38;;;8.14;73.73
72066;BME280;59939;52.516;13.420;2022-11-15T00:49:43;100476.38;;;7.84;75.50
72066;BME280;59939;52.516;13.420;2022-11-15T00:53:06;100464.56;;;8.08;75.06
72066;BME280;59939;52.516;13.420;2022-11-15T00:56:29;100464.13;;;8.98;70.62
72066;BME280;59939;52.516;13.420;2022-11-15T00:59:51;100460.28;;;8.02;74.70
72066;BME280;59939;52.516;13.420;2022-11-15T01:03:14;100458.56;;;8.06;74.74
72066;BME280;59939;52.516;13.420;2022-11-15T01:06:37;100453.50;;;8.32;74.15
72066;BME280;59939;52.516;13.420;2022-11-15T01:09:59;100460.91;;;7.80;75.46
72066;BME280;59939;52.516;13.420;2022-11-15T01:13:22;100451.88;;;8.96;70.54
72066;BME280;59939;52.516;13.420;2022-11-15T01:16:45;100454.56;;;8.17;72.82
72066;BME280;59939;52.516;13.420;2022-11-15T01:20:08;100455.97;;;8.33;74.19
72066;BME280;59939;52.516;13.420;2022-11-15T01:23:31;100445.56;;;8.16;74.67
72066;BME280;59939;52.516;13.420;2022-11-15T01:26:53;100443.59;;;7.84;76.06
72066;BME280;59939;52.516;13.420;2022-11-15T01:30:16;100437.81;;;7.30;77.72
72066;BME280;59939;52.516;13.420;2022-11-15T01:33:39;100439.44;;;7.31;78.18
72066;BME280;59939;52.516;13.420;2022-11-15T01:37:03;100426.50;;;7.60;76.22
72066;BME280;59939;52.516;13.420;2022-11-15T01:40:25;100422.28;;;7.68;76.46
72066;BME280;59939;52.516;13.420;2022-11-15T01:43:57;100426.50;;;7.60;77.21
72066;BME280;59939;52.516;13.420;2022-11-15T01:47:31;100425.25;;;7.10;78.00
72066;BME280;59939;52.516;13.420;2022-11-15T01:50:56;100415.19;;;7.48;76.06
72066;BME280;59939;52.516;13.420;2022-11-15T01:54:23;100400.78;;;7.24;77.44
72066;BME280;59939;52.516;13.420;2022-11-15T01:57:48;100398.75;;;7.53;77.31
72066;BME280;59939;52.516;13.420;2022-11-15T02:01:13;100399.78;;;7.57;76.64
72066;BME280;59939;52.516;13.420;2022-11-15T02:04:46;100389.41;;;8.57;72.42
72066;BME280;59939;52.516;13.420;2022-11-15T02:08:10;100385.22;;;7.80;75.19
72066;BME280;59939;52.516;13.420;2022-11-15T02:11:42;100382.84;;;8.25;73.09
72066;BME280;59939;52.516;13.420;2022-11-15T02:15:06;100381.22;;;8.70;72.16
72066;BME280;59939;52.516;13.420;2022-11-15T02:18:34;100387.28;;;8.21;71.95
72066;BME280;59939;52.516;13.420;2022-11-15T02:22:23;100385.63;;;8.06;75.22
72066;BME280;59939;52.516;13.420;2022-11-15T02:26:11;100391.22;;;7.45;77.16
72066;BME280;59939;52.516;13.420;2022-11-15T02:29:55;100382.75;;;8.76;71.66
72066;BME280;59939;52.516;13.420;2022-11-15T02:33:48;100391.38;;;7.72;75.61
72066;BME280;59939;52.516;13.420;2022-11-15T02:37:44;100380.44;;;7.72;76.47
72066;BME280;59939;52.516;13.420;2022-11-15T02:41:40;100388.28;;;7.41;76.90
72066;BME280;59939;52.516;13.420;2022-11-15T02:45:13;100384.50;;;7.37;77.41
72066;BME280;59939;52.516;13.420;2022-11-15T02:48:41;100377.78;;;7.67;75.57
72066;BME280;59939;52.516;13.420;2022-11-15T02:52:06;100377.56;;;7.64;76.71
72066;BME280;59939;52.516;13.420;2022-11-15T02:55:38;100367.72;;;7.81;75.26
72066;BME280;59939;52.516;13.420;2022-11-15T02:59:18;100378.31;;;7.69;75.45
72066;BME280;59939;52.516;13.420;2022-11-15T03:06:54;100360.59;;;7.48;76.86
72066;BME280;59939;52.516;13.420;2022-11-15T03:14:21;100366.13;;;7.43;77.11
72066;BME280;59939;52.516;13.420;2022-11-15T03:17:50;100373.53;;;7.61;76.24
72066;BME280;59939;52.516;13.420;2022-11-15T03:21:18;100365.81;;;8.14;74.20
72066;BME280;59939;52.516;13.420;2022-11-15T03:24:45;100366.00;;;7.53;76.93
72066;BME280;59939;52.516;13.420;2022-11-15T03:28:17;100364.50;;;7.79;75.92
72066;BME280;59939;52.516;13.420;2022-11-15T03:31:46;100365.25;;;7.47;76.68
72066;BME280;59939;52.516;13.420;2022-11-15T03:35:14;100371.31;;;7.44;76.93
72066;BME280;59939;52.516;13.420;2022-11-15T03:38:39;100358.34;;;8.20;73.63
72066;BME280;59939;52.516;13.420;2022-11-15T03:42:40;100364.59;;;7.56;75.83
72066;BME280;59939;52.516;13.420;2022-11-15T03:46:35;100356.53;;;7.27;77.35
72066;BME280;59939;52.516;13.420;2022-11-15T03:50:07;100349.38;;;7.68;76.68
72066;BME280;59939;52.516;13.420;2022-11-15T03:53:31;100347.41;;;7.55;76.49
72066;BME280;59939;52.516;13.420;2022-11-15T03:56:54;100348.78;;;7.71;75.87
72066;BME280;59939;52.516;13.420;2022-11-15T04:00:17;100347.56;;;7.45;77.02
72066;BME280;59939;52.516;13.420;2022-11-15T04:03:39;100344.13;;;7.72;76.06
72066;BME280;59939;52.516;13.420;2022-11-15T04:07:02;100339.66;;;7.25;77.79
72066;BME280;59939;52.516;13.420;2022-11-15T04:10:24;100344.66;;;7.74;75.08
72066;BME280;59939;52.516;13.420;2022-11-15T04:13:47;100350.56;;;7.95;74.01
72066;BME280;59939;52.516;13.420;2022-11-15T04:17:10;100338.97;;;8.63;70.46
72066;BME280;59939;52.516;13.420;2022-11-15T04:20:32;100334.69;;;7.97;73.86
72066;BME280;59939;52.516;13.420;2022-11-15T04:24:14;100331.34;;;8.00;74.46
72066;BME280;59939;52.516;13.420;2022-11-15T04:27:37;100335.34;;;7.75;75.39
72066;BME280;59939;52.516;13.420;2022-11-15T04:30:59;100329.69;;;7.85;73.81
72066;BME280;59939;52.516;13.420;2022-11-15T04:34:22;100330.94;;;7.93;74.30
72066;BME280;59939;52.516;13.420;2022-11-15T04:37:44;100335.38;;;7.56;75.90
72066;BME280;59939;52.516;13.420;2022-11-15T04:41:11;100339.50;;;7.53;75.56
72066;BME280;59939;52.516;13.420;2022-11-15T04:44:34;100331.31;;;7.35;76.50
72066;BME280;59939;52.516;13.420;2022-11-15T04:48:05;100328.06;;;7.70;74.33
72066;BME280;59939;52.516;13.420;2022-11-15T04:51:27;100329.69;;;7.71;75.15
72066;BME280;59939;52.516;13.420;2022-11-15T04:54:50;100315.59;;;8.10;73.53
72066;BME280;59939;52.516;13.420;2022-11-15T04:58:14;100321.13;;;7.59;74.67
72066;BME280;59939;52.516;13.420;2022-11-15T05:01:36;100324.59;;;7.46;76.03
72066;BME280;59939;52.516;13.420;2022-11-15T05:05:05;100319.41;;;7.96;74.12
72066;BME280;59939;52.516;13.420;2022-11-15T05:08:37;100324.53;;;7.51;76.37
72066;BME280;59939;52.516;13.420;2022-11-15T05:12:06;100322.22;;;7.77;75.15
72066;BME280;59939;52.516;13.420;2022-11-15T05:15:29;100315.72;;;8.19;73.57
72066;BME280;59939;52.516;13.420;2022-11-15T05:18:53;100323.06;;;8.05;73.27
72066;BME280;59939;52.516;13.420;2022-11-15T05:22:15;100321.41;;;8.23;72.58
72066;BME280;59939;52.516;13.420;2022-11-15T05:25:38;100323.28;;;8.08;73.66
72066;BME280;59939;52.516;13.420;2022-11-15T05:29:00;100322.47;;;8.08;73.21
72066;BME280;59939;52.516;13.420;2022-11-15T05:32:23;100324.00;;;8.14;72.00
72066;BME280;59939;52.516;13.420;2022-11-15T05:35:50;100314.84;;;7.91;73.07
72066;BME280;59939;52.516;13.420;2022-11-15T05:39:16;100323.63;;;7.74;75.08
72066;BME280;59939;52.516;13.420;2022-11-15T05:42:39;100317.34;;;7.74;75.00
72066;BME280;59939;52.516;13.420;2022-11-15T05:46:03;100321.13;;;7.59;75.26
72066;BME280;59939;52.516;13.420;2022-11-15T05:49:31;100322.25;;;7.58;74.92
72066;BME280;59939;52.516;13.420;2022-11-15T05:52:54;100323.88;;;8.05;73.22
72066;BME280;59939;52.516;13.420;2022-11-15T05:56:17;100321.72;;;7.89;73.49
72066;BME280;59939;52.516;13.420;2022-11-15T05:59:40;100318.53;;;7.68;74.71
72066;BME280;59939;52.516;13.420;2022-11-15T06:03:06;100324.00;;;8.46;71.78
72066;BME280;59939;52.516;13.420;2022-11-15T06:06:28;100331.59;;;8.17;72.67
72066;BME280;59939;52.516;13.420;2022-11-15T06:09:51;100329.34;;;8.79;70.76
72066;BME280;59939;52.516;13.420;2022-11-15T06:13:14;100329.81;;;8.26;71.71
72066;BME280;59939;52.516;13.420;2022-11-15T06:16:39;100325.09;;;8.73;69.85
72066;BME280;59939;52.516;13.420;2022-11-15T06:20:04;100331.47;;;9.68;65.37
72066;BME280;59939;52.516;13.420;2022-11-15T06:23:27;100332.69;;;8.48;69.71
72066;BME280;59939;52.516;13.420;2022-11-15T06:26:55;100334.94;;;8.60;69.46
72066;BME280;59939;52.516;13.420;2022-11-15T06:30:29;100336.94;;;8.41;71.12
72066;BME280;59939;52.516;13.420;2022-11-15T06:33:52;100335.72;;;8.47;69.47
72066;BME280;59939;52.516;13.420;2022-11-15T06:37:20;100328.88;;;8.17;72.62
72066;BME280;59939;52.516;13.420;2022-11-15T06:40:43;100334.75;;;8.24;71.32
72066;BME280;59939;52.516;13.420;2022-11-15T06:44:05;100351.59;;;7.47;75.43
72066;BME280;59939;52.516;13.420;2022-11-15T06:47:31;100337.97;;;8.59;71.07
72066;BME280;59939;52.516;13.420;2022-11-15T06:50:58;100333.50;;;8.90;70.17
72066;BME280;59939;52.516;13.420;2022-11-15T06:54:30;100347.38;;;8.53;70.40
72066;BME280;59939;52.516;13.420;2022-11-15T06:57:53;100349.72;;;8.87;69.39
72066;BME280;59939;52.516;13.420;2022-11-15T07:01:15;100350.53;;;9.37;66.45
72066;BME280;59939;52.516;13.420;2022-11-15T07:04:39;100353.41;;;9.18;68.00
72066;BME280;59939;52.516;13.420;2022-11-15T07:08:03;100351.66;;;8.26;71.02
72066;BME280;59939;52.516;13.420;2022-11-15T07:11:26;100344.84;;;8.56;70.79
72066;BME280;59939;52.516;13.420;2022-11-15T07:14:49;100354.59;;;8.76;69.57
72066;BME280;59939;52.516;13.420;2022-11-15T07:18:11;100361.38;;;9.42;67.32
72066;BME280;59939;52.516;13.420;2022-11-15T07:21:34;100365.72;;;8.93;68.87
72066;BME280;59939;52.516;13.420;2022-11-15T07:24:57;100365.53;;;8.76;69.01
72066;BME280;59939;52.516;13.420;2022-11-15T07:28:19;100374.25;;;9.77;66.58
72066;BME280;59939;52.516;13.420;2022-11-15T07:31:42;100370.50;;;9.01;67.87
72066;BME280;59939;52.516;13.420;2022-11-15T07:35:05;100371.06;;;9.84;66.59
72066;BME280;59939;52.516;13.420;2022-11-15T07:38:28;100375.13;;;10.31;64.10
72066;BME280;59939;52.516;13.420;2022-11-15T07:41:51;100363.97;;;10.59;63.31
72066;BME280;59939;52.516;13.420;2022-11-15T07:45:34;100364.66;;;9.89;63.96
72066;BME280;59939;52.516;13.420;2022-11-15T07:49:02;100362.00;;;10.20;64.04
72066;BME280;59939;52.516;13.420;2022-11-15T07:52:29;100353.03;;;10.28;63.41
72066;BME280;59939;52.516;13.420;2022-11-15T07:55:52;100358.94;;;9.40;67.17
72066;BME280;59939;52.516;13.420;2022-11-15T07:59:16;100354.34;;;11.53;61.40
72066;BME280;59939;52.516;13.420;2022-11-15T08:02:45;100351.34;;;13.12;55.18
72066;BME280;59939;52.516;13.420;2022-11-15T08:06:09;100350.31;;;12.02;57.23
72066;BME280;59939;52.516;13.420;2022-11-15T08:09:32;100339.63;;;12.09;57.58
72066;BME280;59939;52.516;13.420;2022-11-15T08:12:59;100340.72;;;11.04;61.39
72066;BME280;59939;52.516;13.420;2022-11-15T08:16:22;100334.97;;;11.84;59.18
72066;BME280;59939;52.516;13.420;2022-11-15T08:19:45;100349.94;;;11.17;60.61
72066;BME280;59939;52.516;13.420;2022-11-15T08:23:17;100340.50;;;12.48;57.15
72066;BME280;59939;52.516;13.420;2022-11-15T08:26:55;100330.50;;;15.24;48.62
72066;BME280;59939;52.516;13.420;2022-11-15T08:30:20;100345.97;;;11.66;59.24
72066;BME280;59939;52.516;13.420;2022-11-15T08:33:45;100347.25;;;11.77;57.95
72066;BME280;59939;52.516;13.420;2022-11-15T08:37:09;100334.88;;;13.74;52.38
72066;BME280;59939;52.516;13.420;2022-11-15T08:40:31;100333.41;;;15.96;46.92
72066;BME280;59939;52.516;13.420;2022-11-15T08:43:54;100338.09;;;14.09;50.77
72066;BME280;59939;52.516;13.420;2022-11-15T08:47:18;100322.03;;;16.13;47.28
72066;BME280;59939;52.516;13.420;2022-11-15T08:50:41;100333.38;;;14.43;50.26
72066;BME280;59939;52.516;13.420;2022-11-15T08:54:06;100340.03;;;14.42;50.51
72066;BME280;59939;52.516;13.420;2022-11-15T08:57:29;100338.75;;;13.31;53.73
72066;BME280;59939;52.516;13.420;2022-11-15T09:00:53;100352.13;;;14.49;51.12
72066;BME280;59939;52.516;13.420;2022-11-15T09:04:16;100343.41;;;15.73;47.93
72066;BME280;59939;52.516;13.420;2022-11-15T09:07:40;100349.88;;;13.64;52.51
72066;BME280;59939;52.516;13.420;2022-11-15T09:11:05;100348.91;;;15.57;48.10
72066;BME280;59939;52.516;13.420;2022-11-15T09:14:29;100341.38;;;14.23;51.18
72066;BME280;59939;52.516;13.420;2022-11-15T09:17:52;100341.00;;;14.82;50.33
72066;BME280;59939;52.516;13.420;2022-11-15T09:21:15;100345.50;;;15.11;48.49
72066;BME280;59939;52.516;13.420;2022-11-15T09:24:42;100334.19;;;13.35;54.98
72066;BME280;59939;52.516;13.420;2022-11-15T09:28:06;100333.84;;;14.57;51.92
72066;BME280;59939;52.516;13.420;2022-11-15T09:31:32;100343.44;;;15.60;48.49
72066;BME280;59939;52.516;13.420;2022-11-15T09:34:58;100328.94;;;16.51;46.56
72066;BME280;59939;52.516;13.420;2022-11-15T09:38:23;100331.72;;;17.68;44.24
72066;BME280;59939;52.516;13.420;2022-11-15T09:42:16;100337.97;;;18.92;40.27
72066;BME280;59939;52.516;13.420;2022-11-15T09:46:20;100344.25;;;18.62;41.13
72066;BME280;59939;52.516;13.420;2022-11-15T09:49:52;100343.69;;;17.37;43.92
72066;BME280;59939;52.516;13.420;2022-11-15T09:53:17;100331.88;;;17.75;42.69
72066;BME280;59939;52.516;13.420;2022-11-15T09:56:40;100331.13;;;16.73;45.22
72066;BME280;59939;52.516;13.420;2022-11-15T09:59:51;100313.03;;;16.95;44.97
72066;BME280;59939;52.516;13.420;2022-11-15T10:03:35;100319.44;;;18.31;42.36
72066;BME280;59939;52.516;13.420;2022-11-15T10:07:01;100311.66;;;19.68;39.43
72066;BME280;59939;52.516;13.420;2022-11-15T10:13:28;100319.75;;;16.47;45.82
72066;BME280;59939;52.516;13.420;2022-11-15T10:17:09;100300.25;;;19.17;39.61
72066;BME280;59939;52.516;13.420;2022-11-15T10:20:27;100292.34;;;21.91;34.57
72066;BME280;59939;52.516;13.420;2022-11-15T10:23:31;100300.78;;;14.36;51.71
72066;BME280;59939;52.516;13.420;2022-11-15T10:26:36;100286.88;;;16.61;46.29
72066;BME280;59939;52.516;13.420;2022-11-15T10:29:46;100287.84;;;19.71;38.99
72066;BME280;59939;52.516;13.420;2022-11-15T10:32:53;100279.31;;;19.90;38.47
72066;BME280;59939;52.516;13.420;2022-11-15T10:39:16;100265.38;;;21.33;35.94
72066;BME280;59939;52.516;13.420;2022-11-15T10:42:27;100252.34;;;23.43;32.00
72066;BME280;59939;52.516;13.420;2022-11-15T10:45:46;100259.88;;;19.00;39.76
72066;BME280;59939;52.516;13.420;2022-11-15T10:48:50;100254.22;;;17.21;43.63
72066;BME280;59939;52.516;13.420;2022-11-15T10:52:17;100242.13;;;22.30;34.92
72066;BME280;59939;52.516;13.420;2022-11-15T10:55:26;100230.84;;;24.03;31.43
72066;BME280;59939;52.516;13.420;2022-11-15T10:58:51;100235.72;;;22.08;34.10
72066;BME280;59939;52.516;13.420;2022-11-15T11:01:56;100247.41;;;18.41;40.69
72066;BME280;59939;52.516;13.420;2022-11-15T11:05:02;100236.13;;;22.82;32.98
72066;BME280;59939;52.516;13.420;2022-11-15T11:08:32;100221.53;;;21.37;35.14
72066;BME280;59939;52.516;13.420;2022-11-15T11:11:48;100220.34;;;20.22;38.58
72066;BME280;59939;52.516;13.420;2022-11-15T11:14:53;100217.75;;;22.27;35.69
72066;BME280;59939;52.516;13.420;2022-11-15T11:18:07;100195.09;;;21.13;35.63
72066;BME280;59939;52.516;13.420;2022-11-15T11:21:16;100205.28;;;23.94;31.94
72066;BME280;59939;52.516;13.420;2022-11-15T11:28:41;100196.47;;;23.95;31.43
72066;BME280;59939;52.516;13.420;2022-11-15T11:38:50;100190.44;;;21.35;35.77
72066;BME280;59939;52.516;13.420;2022-11-15T11:42:34;100197.56;;;21.22;36.90
72066;BME280;59939;52.516;13.420;2022-11-15T11:49:23;100206.66;;;18.00;43.91
72066;BME280;59939;52.516;13.420;2022-11-15T11:52:43;100198.06;;;23.16;33.72
72066;BME280;59939;52.516;13.420;2022-11-15T11:55:53;100197.66;;;21.47;35.38
72066;BME280;59939;52.516;13.420;2022-11-15T11:59:43;100200.19;;;22.41;34.66
72066;BME280;59939;52.516;13.420;2022-11-15T12:03:29;100185.41;;;22.44;34.56
72066;BME280;59939;52.516;13.420;2022-11-15T12:09:58;100172.63;;;20.85;38.19
72066;BME280;59939;52.516;13.420;2022-11-15T12:13:11;100168.44;;;18.65;42.88
72066;BME280;59939;52.516;13.420;2022-11-15T12:16:30;100169.03;;;21.89;35.48
72066;BME280;59939;52.516;13.420;2022-11-15T12:19:34;100170.09;;;19.00;41.23
72066;BME280;59939;52.516;13.420;2022-11-15T12:22:47;100175.25;;;21.26;37.71
72066;BME280;59939;52.516;13.420;2022-11-15T12:26:03;100173.91;;;17.86;44.71
72066;BME280;59939;52.516;13.420;2022-11-15T12:29:15;100165.72;;;21.37;37.72
72066;BME280;59939;52.516;13.420;2022-11-15T12:32:28;100155.53;;;20.90;38.32
72066;BME280;59939;52.516;13.420;2022-11-15T12:35:41;100156.59;;;24.29;32.58
72066;BME280;59939;52.516;13.420;2022-11-15T12:38:57;100161.00;;;17.74;45.06
72066;BME280;59939;52.516;13.420;2022-11-15T12:45:25;100143.28;;;21.12;38.02
72066;BME280;59939;52.516;13.420;2022-11-15T12:54:55;100128.03;;;24.41;31.23
72066;BME280;59939;52.516;13.420;2022-11-15T12:58:24;100133.41;;;22.93;33.88
72066;BME280;59939;52.516;13.420;2022-11-15T13:04:40;100109.50;;;25.76;30.04
72066;BME280;59939;52.516;13.420;2022-11-15T13:10:53;100110.63;;;25.25;30.37
72066;BME280;59939;52.516;13.420;2022-11-15T13:13:58;100108.94;;;25.00;30.62
72066;BME280;59939;52.516;13.420;2022-11-15T13:17:36;100112.81;;;24.42;31.52
72066;BME280;59939;52.516;13.420;2022-11-15T13:20:45;100106.16;;;23.11;33.74
72066;BME280;59939;52.516;13.420;2022-11-15T13:23:54;100109.13;;;22.47;35.39
72066;BME280;59939;52.516;13.420;2022-11-15T13:27:01;100097.53;;;23.47;33.55
72066;BME280;59939;52.516;13.420;2022-11-15T13:30:12;100094.44;;;24.37;32.49
72066;BME280;59939;52.516;13.420;2022-11-15T13:33:31;100105.22;;;20.58;38.58
72066;BME280;59939;52.516;13.420;2022-11-15T13:36:38;100101.22;;;22.06;36.08
72066;BME280;59939;52.516;13.420;2022-11-15T13:39:43;100108.34;;;21.58;36.75
72066;BME280;59939;52.516;13.420;2022-11-15T13:42:47;100105.69;;;23.23;34.00
72066;BME280;59939;52.516;13.420;2022-11-15T13:46:17;100102.09;;;20.74;38.45
72066;BME280;59939;52.516;13.420;2022-11-15T13:49:32;100099.75;;;20.87;37.91
72066;BME280;59939;52.516;13.420;2022-11-15T13:52:37;100094.84;;;22.09;35.90
72066;BME280;59939;52.516;13.420;2022-11-15T13:55:44;100100.94;;;20.78;38.46
72066;BME280;59939;52.516;13.420;2022-11-15T13:58:49;100098.91;;;20.68;38.68
72066;BME280;59939;52.516;13.420;2022-11-15T14:01:55;100093.84;;;21.09;38.13
72066;BME280;59939;52.516;13.420;2022-11-15T14:05:16;100093.97;;;22.44;35.50
72066;BME280;59939;52.516;13.420;2022-11-15T14:11:27;100099.19;;;20.49;39.37
72066;BME280;59939;52.516;13.420;2022-11-15T14:14:31;100110.25;;;20.38;39.38
72066;BME280;59939;52.516;13.420;2022-11-15T14:17:38;100106.97;;;21.02;38.41
72066;BME280;59939;52.516;13.420;2022-11-15T14:21:06;100110.78;;;21.84;36.87
72066;BME280;59939;52.516;13.420;2022-11-15T14:24:31;100111.53;;;21.45;37.70
72066;BME280;59939;52.516;13.420;2022-11-15T14:31:17;100101.56;;;20.47;39.94
72066;BME280;59939;52.516;13.420;2022-11-15T14:34:21;100095.44;;;21.07;38.33
72066;BME280;59939;52.516;13.420;2022-11-15T14:37:31;100091.72;;;20.67;39.34
72066;BME280;59939;52.516;13.420;2022-11-15T14:40:37;100094.59;;;19.72;41.31
72066;BME280;59939;52.516;13.420;2022-11-15T14:43:41;100084.50;;;19.16;42.71
72066;BME280;59939;52.516;13.420;2022-11-15T14:46:53;100086.34;;;17.88;45.64
72066;BME280;59939;52.516;13.420;2022-11-15T14:49:57;100090.56;;;18.05;45.97
72066;BME280;59939;52.516;13.420;2022-11-15T14:53:04;100085.94;;;17.02;48.58
72066;BME280;59939;52.516;13.420;2022-11-15T14:56:09;100084.53;;;17.54;47.14
72066;BME280;59939;52.516;13.420;2022-11-15T14:59:15;100078.03;;;17.23;48.40
72066;BME280;59939;52.516;13.420;2022-11-15T15:02:24;100075.69;;;16.83;49.58
72066;BME280;59939;52.516;13.420;2022-11-15T15:05:43;100073.94;;;16.75;49.77
72066;BME280;59939;52.516;13.420;2022-11-15T15:08:47;100075.41;;;16.88;49.35
72066;BME280;59939;52.516;13.420;2022-11-15T15:11:54;100068.75;;;16.04;51.85
72066;BME280;59939;52.516;13.420;2022-11-15T15:15:31;100071.91;;;16.37;51.35
72066;BME280;59939;52.516;13.420;2022-11-15T15:18:36;100067.44;;;15.97;52.79
72066;BME280;59939;52.516;13.420;2022-11-15T15:21:55;100067.53;;;16.36;51.75
72066;BME280;59939;52.516;13.420;2022-11-15T15:25:02;100060.47;;;16.39;51.48
72066;BME280;59939;52.516;13.420;2022-11-15T15:28:08;100064.59;;;15.31;54.55
72066;BME280;59939;52.516;13.420;2022-11-15T15:31:13;100064.50;;;15.90;53.12
72066;BME280;59939;52.516;13.420;2022-11-15T15:34:16;100061.78;;;16.10;52.46
72066;BME280;59939;52.516;13.420;2022-11-15T15:37:25;100056.28;;;15.94;52.83
72066;BME280;59939;52.516;13.420;2022-11-15T15:40:32;100058.44;;;15.85;53.35
72066;BME280;59939;52.516;13.420;2022-11-15T15:43:38;100049.00;;;15.54;54.31
72066;BME280;59939;52.516;13.420;2022-11-15T15:46:45;100052.72;;;15.30;55.46
72066;BME280;59939;52.516;13.420;2022-11-15T15:49:50;100052.19;;;15.25;55.56
72066;BME280;59939;52.516;13.420;2022-11-15T15:52:57;100048.19;;;15.38;54.59
72066;BME280;59939;52.516;13.420;2022-11-15T15:56:02;100044.94;;;15.99;53.31
72066;BME280;59939;52.516;13.420;2022-11-15T15:59:06;100044.81;;;15.60;54.69
72066;BME280;59939;52.516;13.420;2022-11-15T16:02:13;100039.50;;;15.87;53.73
72066;BME280;59939;52.516;13.420;2022-11-15T16:05:17;100039.09;;;15.53;54.76
72066;BME280;59939;52.516;13.420;2022-11-15T16:08:23;100034.34;;;15.70;54.09
72066;BME280;59939;52.516;13.420;2022-11-15T16:11:28;100041.31;;;14.88;56.71
72066;BME280;59939;52.516;13.420;2022-11-15T16:14:32;100045.09;;;14.96;56.66
72066;BME280;59939;52.516;13.420;2022-11-15T16:17:51;100045.09;;;14.68;57.97
72066;BME280;59939;52.516;13.420;2022-11-15T16:20:55;100034.28;;;15.34;55.83
72066;BME280;59939;52.516;13.420;2022-11-15T16:24:00;100031.94;;;14.37;58.69
72066;BME280;59939;52.516;13.420;2022-11-15T16:27:05;100030.78;;;14.78;58.10
72066;BME280;59939;52.516;13.420;2022-11-15T16:30:13;100028.38;;;14.49;58.88
72066;BME280;59939;52.516;13.420;2022-11-15T16:33:17;100026.75;;;14.48;58.94
72066;BME280;59939;52.516;13.420;2022-11-15T16:36:25;100019.69;;;14.22;59.80
72066;BME280;59939;52.516;13.420;2022-11-15T16:39:33;100018.19;;;14.25;60.10
72066;BME280;59939;52.516;13.420;2022-11-15T16:42:37;100030.78;;;13.74;62.10
72066;BME280;59939;52.516;13.420;2022-11-15T16:45:46;100015.50;;;13.39;62.80
72066;BME280;59939;52.516;13.420;2022-11-15T16:48:57;100022.97;;;13.76;61.99
72066;BME280;59939;52.516;13.420;2022-11-15T16:52:01;100022.03;;;14.08;60.84
72066;BME280;59939;52.516;13.420;2022-11-15T16:55:09;100024.56;;;14.01;60.85
72066;BME280;59939;52.516;13.420;2022-11-15T16:58:14;100020.44;;;13.95;61.15
72066;BME280;59939;52.516;13.420;2022-11-15T17:01:22;100021.03;;;13.64;61.61
72066;BME280;59939;52.516;13.420;2022-11-15T17:04:29;100024.47;;;13.03;64.19
72066;BME280;59939;52.516;13.420;2022-11-15T17:07:39;100007.59;;;13.38;63.08
72066;BME280;59939;52.516;13.420;2022-11-15T17:10:45;100013.91;;;13.38;62.76
72066;BME280;59939;52.516;13.420;2022-11-15T17:13:58;100009.06;;;13.35;62.57
72066;BME280;59939;52.516;13.420;2022-11-15T17:17:02;100012.19;;;13.01;63.76
72066;BME280;59939;52.516;13.420;2022-11-15T17:20:13;100009.53;;;12.80;64.36
72066;BME280;59939;52.516;13.420;2022-11-15T17:23:19;100006.63;;;12.02;66.67
72066;BME280;59939;52.516;13.420;2022-11-15T17:26:23;100010.84;;;11.99;67.11
72066;BME280;59939;52.516;13.420;2022-11-15T17:29:36;100004.94;;;12.09;66.32
72066;BME280;59939;52.516;13.420;2022-11-15T17:32:40;100001.13;;;11.72;68.52
72066;BME280;59939;52.516;13.420;2022-11-15T17:35:45;100003.69;;;12.07;67.03
72066;BME280;59939;52.516;13.420;2022-11-15T17:38:49;100009.09;;;11.95;67.51
72066;BME280;59939;52.516;13.420;2022-11-15T17:41:58;100005.88;;;11.93;67.57
72066;BME280;59939;52.516;13.420;2022-11-15T17:45:02;100011.47;;;12.05;66.48
72066;BME280;59939;52.516;13.420;2022-11-15T17:48:09;100005.00;;;11.51;68.76
72066;BME280;59939;52.516;13.420;2022-11-15T17:51:17;100000.59;;;11.58;68.91
72066;BME280;59939;52.516;13.420;2022-11-15T17:54:24;99999.84;;;11.99;66.83
72066;BME280;59939;52.516;13.420;2022-11-15T17:57:28;99997.28;;;11.94;66.51
72066;BME280;59939;52.516;13.420;2022-11-15T18:00:32;99997.50;;;12.10;66.09
72066;BME280;59939;52.516;13.420;2022-11-15T18:03:37;99998.03;;;11.74;67.35
72066;BME280;59939;52.516;13.420;2022-11-15T18:06:41;100006.22;;;12.12;65.79
72066;BME280;59939;52.516;13.420;2022-11-15T18:09:52;100003.00;;;12.52;63.62
72066;BME280;59939;52.516;13.420;2022-11-15T18:13:00;99998.63;;;12.84;62.62